sensor_id;sensor_type;location;lat;lon;timestamp;P1;durP1;ratioP1;P2;durP2;ratioP2
41446;SDS011;27185;52.040;4.490;2023-05-01T00:02:37;2.83;;;1.83;;
41446;SDS011;27185;52.040;4.490;2023-05-01T00:05:23;4.68;;;2.13;;
41446;SDS011;27185;52.040;4.490;2023-05-01T00:08:09;3.40;;;1.75;;
41446;SDS011;27185;52.040;4.490;2023-05-01T00:10:55;2.78;;;1.60;;
41446;SDS011;27185;52.040;4.490;2023-05-01T00:13:41;3.78;;;1.80;;
41446;SDS011;27185;52.040;4.490;2023-05-01T00:16:26;4.15;;;1.73;;
41446;SDS011;27185;52.040;4.490;2023-05-01T00:19:12;3.75;;;1.85;;
41446;SDS011;27185;52.040;4.490;2023-05-01T00:22:02;3.45;;;1.77;;
41446;SDS011;27185;52.040;4.490;2023-05-01T00:24:47;3.80;;;2.05;;
41446;SDS011;27185;52.040;4.490;2023-05-01T00:27:34;3.60;;;1.65;;
41446;SDS011;27185;52.040;4.490;2023-05-01T00:30:19;2.92;;;1.70;;
41446;SDS011;27185;52.040;4.490;2023-05-01T00:33:05;4.68;;;1.63;;
41446;SDS011;27185;52.040;4.490;2023-05-01T00:35:50;3.58;;;1.88;;
41446;SDS011;27185;52.040;4.490;2023-05-01T00:38:36;2.42;;;1.60;;
41446;SDS011;27185;52.040;4.490;2023-05-01T00:41:22;2.88;;;1.50;;
41446;SDS011;27185;52.040;4.490;2023-05-01T00:44:07;2.30;;;1.42;;
41446;SDS011;27185;52.040;4.490;2023-05-01T00:46:53;3.88;;;2.00;;
41446;SDS011;27185;52.040;4.490;2023-05-01T00:49:41;4.22;;;2.53;;
41446;SDS011;27185;52.040;4.490;2023-05-01T00:52:27;3.65;;;1.92;;
41446;SDS011;27185;52.040;4.490;2023-05-01T00:55:13;3.63;;;1.75;;
41446;SDS011;27185;52.040;4.490;2023-05-01T00:57:59;3.58;;;1.52;;
41446;SDS011;27185;52.040;4.490;2023-05-01T01:00:46;2.95;;;1.90;;
41446;SDS011;27185;52.040;4.490;2023-05-01T01:03:34;3.22;;;1.95;;
41446;SDS011;27185;52.040;4.490;2023-05-01T01:06:27;4.63;;;2.65;;
41446;SDS011;27185;52.040;4.490;2023-05-01T01:09:22;3.25;;;1.95;;
41446;SDS011;27185;52.040;4.490;2023-05-01T01:12:32;3.13;;;1.70;;
41446;SDS011;27185;52.040;4.490;2023-05-01T01:15:31;4.05;;;2.25;;
41446;SDS011;27185;52.040;4.490;2023-05-01T01:22:07;4.43;;;1.88;;
41446;SDS011;27185;52.040;4.490;2023-05-01T01:31:48;5.05;;;2.58;;
41446;SDS011;27185;52.040;4.490;2023-05-01T01:37:37;4.30;;;2.50;;
41446;SDS011;27185;52.040;4.490;2023-05-01T01:40:38;3.80;;;2.03;;
41446;SDS011;27185;52.040;4.490;2023-05-01T01:43:37;4.43;;;1.73;;
41446;SDS011;27185;52.040;4.490;2023-05-01T01:46:24;3.75;;;2.20;;
41446;SDS011;27185;52.040;4.490;2023-05-01T01:49:12;3.42;;;1.67;;
41446;SDS011;27185;52.040;4.490;2023-05-01T01:52:03;5.45;;;2.22;;
41446;SDS011;27185;52.040;4.490;2023-05-01T01:54:53;3.17;;;2.00;;
41446;SDS011;27185;52.040;4.490;2023-05-01T01:57:43;4.13;;;2.15;;
41446;SDS011;27185;52.040;4.490;2023-05-01T02:00:30;3.47;;;1.80;;
41446;SDS011;27185;52.040;4.490;2023-05-01T02:06:04;3.78;;;1.52;;
41446;SDS011;27185;52.040;4.490;2023-05-01T02:08:52;4.43;;;1.48;;
41446;SDS011;27185;52.040;4.490;2023-05-01T02:11:38;5.45;;;2.10;;
41446;SDS011;27185;52.040;4.490;2023-05-01T02:14:25;3.97;;;2.10;;
41446;SDS011;27185;52.040;4.490;2023-05-01T02:17:12;3.10;;;1.98;;
41446;SDS011;27185;52.040;4.490;2023-05-01T02:19:59;4.22;;;1.85;;
41446;SDS011;27185;52.040;4.490;2023-05-01T02:22:46;4.05;;;1.85;;
41446;SDS011;27185;52.040;4.490;2023-05-01T02:25:33;3.60;;;1.85;;
41446;SDS011;27185;52.040;4.490;2023-05-01T02:28:21;3.50;;;1.85;;
41446;SDS011;27185;52.040;4.490;2023-05-01T02:31:08;3.63;;;2.05;;
41446;SDS011;27185;52.040;4.490;2023-05-01T02:33:54;6.38;;;2.35;;
41446;SDS011;27185;52.040;4.490;2023-05-01T02:36:40;3.05;;;1.80;;
41446;SDS011;27185;52.040;4.490;2023-05-01T02:39:26;3.83;;;1.85;;
41446;SDS011;27185;52.040;4.490;2023-05-01T02:42:12;3.63;;;1.60;;
41446;SDS011;27185;52.040;4.490;2023-05-01T02:45:02;4.05;;;2.30;;
41446;SDS011;27185;52.040;4.490;2023-05-01T02:47:51;4.47;;;1.83;;
41446;SDS011;27185;52.040;4.490;2023-05-01T02:50:40;4.93;;;1.70;;
41446;SDS011;27185;52.040;4.490;2023-05-01T02:53:27;4.30;;;1.60;;
41446;SDS011;27185;52.040;4.490;2023-05-01T02:56:13;2.38;;;1.50;;
41446;SDS011;27185;52.040;4.490;2023-05-01T02:59:00;3.20;;;1.63;;
41446;SDS011;27185;52.040;4.490;2023-05-01T03:01:45;2.78;;;1.80;;
41446;SDS011;27185;52.040;4.490;2023-05-01T03:04:32;4.13;;;1.80;;
41446;SDS011;27185;52.040;4.490;2023-05-01T03:07:17;4.40;;;1.77;;
41446;SDS011;27185;52.040;4.490;2023-05-01T03:10:05;3.97;;;1.65;;
41446;SDS011;27185;52.040;4.490;2023-05-01T03:12:51;3.58;;;1.70;;
41446;SDS011;27185;52.040;4.490;2023-05-01T03:15:37;4.40;;;2.05;;
41446;SDS011;27185;52.040;4.490;2023-05-01T03:18:23;5.60;;;2.03;;
41446;SDS011;27185;52.040;4.490;2023-05-01T03:21:08;4.45;;;1.77;;
41446;SDS011;27185;52.040;4.490;2023-05-01T03:23:56;4.13;;;1.90;;
41446;SDS011;27185;52.040;4.490;2023-05-01T03:26:42;5.18;;;2.10;;
41446;SDS011;27185;52.040;4.490;2023-05-01T03:29:27;6.63;;;1.85;;
41446;SDS011;27185;52.040;4.490;2023-05-01T03:32:13;5.38;;;2.05;;
41446;SDS011;27185;52.040;4.490;2023-05-01T03:35:00;3.60;;;2.05;;
41446;SDS011;27185;52.040;4.490;2023-05-01T03:37:45;4.30;;;1.75;;
41446;SDS011;27185;52.040;4.490;2023-05-01T03:40:31;5.18;;;2.30;;
41446;SDS011;27185;52.040;4.490;2023-05-01T03:43:17;3.25;;;1.73;;
41446;SDS011;27185;52.040;4.490;2023-05-01T03:46:02;3.72;;;1.92;;
41446;SDS011;27185;52.040;4.490;2023-05-01T03:48:48;3.85;;;2.35;;
41446;SDS011;27185;52.040;4.490;2023-05-01T03:51:33;5.80;;;2.50;;
41446;SDS011;27185;52.040;4.490;2023-05-01T03:54:19;3.38;;;1.90;;
41446;SDS011;27185;52.040;4.490;2023-05-01T03:57:04;4.50;;;2.38;;
41446;SDS011;27185;52.040;4.490;2023-05-01T03:59:50;5.82;;;3.00;;
41446;SDS011;27185;52.040;4.490;2023-05-01T04:02:35;4.05;;;2.03;;
41446;SDS011;27185;52.040;4.490;2023-05-01T04:05:21;5.55;;;2.47;;
41446;SDS011;27185;52.040;4.490;2023-05-01T04:08:06;3.67;;;2.38;;
41446;SDS011;27185;52.040;4.490;2023-05-01T04:10:52;4.75;;;2.20;;
41446;SDS011;27185;52.040;4.490;2023-05-01T04:13:38;3.55;;;2.20;;
41446;SDS011;27185;52.040;4.490;2023-05-01T04:16:23;4.50;;;1.83;;
41446;SDS011;27185;52.040;4.490;2023-05-01T04:19:09;3.83;;;1.98;;
41446;SDS011;27185;52.040;4.490;2023-05-01T04:21:55;4.88;;;2.20;;
41446;SDS011;27185;52.040;4.490;2023-05-01T04:24:40;2.92;;;1.73;;
41446;SDS011;27185;52.040;4.490;2023-05-01T04:27:26;4.47;;;1.98;;
41446;SDS011;27185;52.040;4.490;2023-05-01T04:30:12;5.85;;;2.60;;
41446;SDS011;27185;52.040;4.490;2023-05-01T04:32:57;7.50;;;2.63;;
41446;SDS011;27185;52.040;4.490;2023-05-01T04:35:43;5.28;;;2.20;;
41446;SDS011;27185;52.040;4.490;2023-05-01T04:38:28;5.00;;;2.50;;
41446;SDS011;27185;52.040;4.490;2023-05-01T04:41:15;6.63;;;2.72;;
41446;SDS011;27185;52.040;4.490;2023-05-01T04:44:00;5.28;;;2.95;;
41446;SDS011;27185;52.040;4.490;2023-05-01T04:46:46;4.35;;;2.65;;
41446;SDS011;27185;52.040;4.490;2023-05-01T04:49:31;4.30;;;2.20;;
41446;SDS011;27185;52.040;4.490;2023-05-01T04:52:17;4.97;;;2.50;;
41446;SDS011;27185;52.040;4.490;2023-05-01T04:55:03;4.28;;;2.15;;
41446;SDS011;27185;52.040;4.490;2023-05-01T04:57:49;4.40;;;2.45;;
41446;SDS011;27185;52.040;4.490;2023-05-01T05:00:35;4.40;;;2.47;;
41446;SDS011;27185;52.040;4.490;2023-05-01T05:03:21;4.47;;;2.28;;
41446;SDS011;27185;52.040;4.490;2023-05-01T05:06:07;4.90;;;2.50;;
41446;SDS011;27185;52.040;4.490;2023-05-01T05:08:53;4.88;;;2.55;;
41446;SDS011;27185;52.040;4.490;2023-05-01T05:11:39;3.67;;;1.80;;
41446;SDS011;27185;52.040;4.490;2023-05-01T05:14:25;4.53;;;2.45;;
41446;SDS011;27185;52.040;4.490;2023-05-01T05:17:10;6.55;;;2.80;;
41446;SDS011;27185;52.040;4.490;2023-05-01T05:19:56;5.18;;;2.38;;
41446;SDS011;27185;52.040;4.490;2023-05-01T05:22:42;4.68;;;2.60;;
41446;SDS011;27185;52.040;4.490;2023-05-01T05:25:27;7.03;;;3.00;;
41446;SDS011;27185;52.040;4.490;2023-05-01T05:28:13;5.38;;;2.28;;
41446;SDS011;27185;52.040;4.490;2023-05-01T05:30:58;4.03;;;2.28;;
41446;SDS011;27185;52.040;4.490;2023-05-01T05:33:44;5.20;;;2.63;;
41446;SDS011;27185;52.040;4.490;2023-05-01T05:36:29;4.68;;;1.95;;
41446;SDS011;27185;52.040;4.490;2023-05-01T05:39:15;5.95;;;2.15;;
41446;SDS011;27185;52.040;4.490;2023-05-01T05:42:01;6.85;;;2.00;;
41446;SDS011;27185;52.040;4.490;2023-05-01T05:44:47;5.15;;;2.95;;
41446;SDS011;27185;52.040;4.490;2023-05-01T05:47:33;4.20;;;2.47;;
41446;SDS011;27185;52.040;4.490;2023-05-01T05:50:18;4.70;;;2.38;;
41446;SDS011;27185;52.040;4.490;2023-05-01T05:53:04;4.35;;;2.53;;
41446;SDS011;27185;52.040;4.490;2023-05-01T05:55:50;6.30;;;2.60;;
41446;SDS011;27185;52.040;4.490;2023-05-01T05:58:36;4.75;;;2.90;;
41446;SDS011;27185;52.040;4.490;2023-05-01T06:01:21;5.15;;;2.58;;
41446;SDS011;27185;52.040;4.490;2023-05-01T06:04:07;5.55;;;2.85;;
41446;SDS011;27185;52.040;4.490;2023-05-01T06:06:53;5.60;;;2.90;;
41446;SDS011;27185;52.040;4.490;2023-05-01T06:09:38;6.60;;;2.70;;
41446;SDS011;27185;52.040;4.490;2023-05-01T06:12:24;6.85;;;3.13;;
41446;SDS011;27185;52.040;4.490;2023-05-01T06:15:10;7.65;;;3.35;;
41446;SDS011;27185;52.040;4.490;2023-05-01T06:17:57;9.70;;;3.28;;
41446;SDS011;27185;52.040;4.490;2023-05-01T06:20:43;5.30;;;2.65;;
41446;SDS011;27185;52.040;4.490;2023-05-01T06:23:28;8.50;;;2.80;;
41446;SDS011;27185;52.040;4.490;2023-05-01T06:26:15;5.93;;;2.70;;
41446;SDS011;27185;52.040;4.490;2023-05-01T06:29:00;4.60;;;2.80;;
41446;SDS011;27185;52.040;4.490;2023-05-01T06:31:46;8.73;;;3.28;;
41446;SDS011;27185;52.040;4.490;2023-05-01T06:34:31;7.43;;;2.90;;
41446;SDS011;27185;52.040;4.490;2023-05-01T06:37:17;6.05;;;3.50;;
41446;SDS011;27185;52.040;4.490;2023-05-01T06:40:06;5.63;;;3.00;;
41446;SDS011;27185;52.040;4.490;2023-05-01T06:42:53;6.35;;;3.13;;
41446;SDS011;27185;52.040;4.490;2023-05-01T06:45:39;5.32;;;3.00;;
41446;SDS011;27185;52.040;4.490;2023-05-01T06:48:26;6.65;;;2.78;;
41446;SDS011;27185;52.040;4.490;2023-05-01T06:51:11;6.88;;;3.00;;
41446;SDS011;27185;52.040;4.490;2023-05-01T06:53:59;7.55;;;2.70;;
41446;SDS011;27185;52.040;4.490;2023-05-01T06:56:46;5.43;;;2.95;;
41446;SDS011;27185;52.040;4.490;2023-05-01T06:59:31;5.95;;;2.92;;
41446;SDS011;27185;52.040;4.490;2023-05-01T07:02:17;6.95;;;3.28;;
41446;SDS011;27185;52.040;4.490;2023-05-01T07:05:02;5.22;;;2.88;;
41446;SDS011;27185;52.040;4.490;2023-05-01T07:07:49;8.65;;;2.83;;
41446;SDS011;27185;52.040;4.490;2023-05-01T07:10:35;5.35;;;2.53;;
41446;SDS011;27185;52.040;4.490;2023-05-01T07:13:20;5.93;;;2.70;;
41446;SDS011;27185;52.040;4.490;2023-05-01T07:16:06;6.78;;;2.53;;
41446;SDS011;27185;52.040;4.490;2023-05-01T07:18:52;5.45;;;3.40;;
41446;SDS011;27185;52.040;4.490;2023-05-01T07:21:38;7.13;;;2.95;;
41446;SDS011;27185;52.040;4.490;2023-05-01T07:24:25;7.45;;;3.38;;
41446;SDS011;27185;52.040;4.490;2023-05-01T07:27:10;6.72;;;3.55;;
41446;SDS011;27185;52.040;4.490;2023-05-01T07:29:56;5.57;;;3.00;;
41446;SDS011;27185;52.040;4.490;2023-05-01T07:32:42;4.72;;;2.38;;
41446;SDS011;27185;52.040;4.490;2023-05-01T07:35:27;6.18;;;3.22;;
41446;SDS011;27185;52.040;4.490;2023-05-01T07:38:14;7.88;;;3.35;;
41446;SDS011;27185;52.040;4.490;2023-05-01T07:41:00;6.27;;;3.43;;
41446;SDS011;27185;52.040;4.490;2023-05-01T07:43:46;7.55;;;3.08;;
41446;SDS011;27185;52.040;4.490;2023-05-01T07:46:31;8.43;;;3.45;;
41446;SDS011;27185;52.040;4.490;2023-05-01T07:49:18;5.67;;;3.53;;
41446;SDS011;27185;52.040;4.490;2023-05-01T07:52:04;8.27;;;3.13;;
41446;SDS011;27185;52.040;4.490;2023-05-01T07:54:52;6.80;;;3.35;;
41446;SDS011;27185;52.040;4.490;2023-05-01T07:57:38;9.13;;;3.63;;
41446;SDS011;27185;52.040;4.490;2023-05-01T08:00:24;7.68;;;4.03;;
41446;SDS011;27185;52.040;4.490;2023-05-01T08:03:09;6.07;;;3.35;;
41446;SDS011;27185;52.040;4.490;2023-05-01T08:05:56;8.13;;;3.58;;
41446;SDS011;27185;52.040;4.490;2023-05-01T08:08:42;5.20;;;3.08;;
41446;SDS011;27185;52.040;4.490;2023-05-01T08:11:27;6.45;;;2.97;;
41446;SDS011;27185;52.040;4.490;2023-05-01T08:14:13;7.55;;;3.65;;
41446;SDS011;27185;52.040;4.490;2023-05-01T08:17:01;7.72;;;4.05;;
41446;SDS011;27185;52.040;4.490;2023-05-01T08:19:47;12.43;;;4.63;;
41446;SDS011;27185;52.040;4.490;2023-05-01T08:22:33;6.53;;;4.45;;
41446;SDS011;27185;52.040;4.490;2023-05-01T08:25:19;6.00;;;3.50;;
41446;SDS011;27185;52.040;4.490;2023-05-01T08:28:04;8.15;;;4.30;;
41446;SDS011;27185;52.040;4.490;2023-05-01T08:30:50;8.10;;;3.97;;
41446;SDS011;27185;52.040;4.490;2023-05-01T08:33:36;6.05;;;4.25;;
41446;SDS011;27185;52.040;4.490;2023-05-01T08:36:21;6.50;;;4.07;;
41446;SDS011;27185;52.040;4.490;2023-05-01T08:39:07;6.97;;;4.00;;
41446;SDS011;27185;52.040;4.490;2023-05-01T08:41:52;8.35;;;4.95;;
41446;SDS011;27185;52.040;4.490;2023-05-01T08:44:38;10.63;;;4.85;;
41446;SDS011;27185;52.040;4.490;2023-05-01T08:47:24;6.95;;;4.10;;
41446;SDS011;27185;52.040;4.490;2023-05-01T08:50:11;8.30;;;5.03;;
41446;SDS011;27185;52.040;4.490;2023-05-01T08:55:33;6.93;;;4.72;;
41446;SDS011;27185;52.040;4.490;2023-05-01T08:58:20;8.43;;;4.93;;
41446;SDS011;27185;52.040;4.490;2023-05-01T09:03:57;6.57;;;4.10;;
41446;SDS011;27185;52.040;4.490;2023-05-01T09:06:46;7.57;;;4.50;;
41446;SDS011;27185;52.040;4.490;2023-05-01T09:09:32;7.50;;;4.85;;
41446;SDS011;27185;52.040;4.490;2023-05-01T09:12:22;6.70;;;4.93;;
41446;SDS011;27185;52.040;4.490;2023-05-01T09:15:10;8.68;;;5.00;;
41446;SDS011;27185;52.040;4.490;2023-05-01T09:17:56;9.75;;;5.20;;
41446;SDS011;27185;52.040;4.490;2023-05-01T09:20:44;6.07;;;4.82;;
41446;SDS011;27185;52.040;4.490;2023-05-01T09:23:31;7.88;;;5.28;;
41446;SDS011;27185;52.040;4.490;2023-05-01T09:26:17;8.43;;;5.55;;
41446;SDS011;27185;52.040;4.490;2023-05-01T09:29:02;8.63;;;5.97;;
41446;SDS011;27185;52.040;4.490;2023-05-01T09:31:49;10.70;;;6.60;;
41446;SDS011;27185;52.040;4.490;2023-05-01T09:34:35;9.27;;;6.60;;
41446;SDS011;27185;52.040;4.490;2023-05-01T09:37:30;13.80;;;6.45;;
41446;SDS011;27185;52.040;4.490;2023-05-01T09:40:16;12.23;;;6.45;;
41446;SDS011;27185;52.040;4.490;2023-05-01T09:45:42;11.02;;;6.72;;
41446;SDS011;27185;52.040;4.490;2023-05-01T09:49:00;14.18;;;7.10;;
41446;SDS011;27185;52.040;4.490;2023-05-01T09:51:47;9.73;;;6.93;;
41446;SDS011;27185;52.040;4.490;2023-05-01T09:54:33;12.85;;;6.57;;
41446;SDS011;27185;52.040;4.490;2023-05-01T09:57:33;9.80;;;6.38;;
41446;SDS011;27185;52.040;4.490;2023-05-01T10:00:19;14.50;;;6.78;;
41446;SDS011;27185;52.040;4.490;2023-05-01T10:03:11;9.65;;;5.82;;
41446;SDS011;27185;52.040;4.490;2023-05-01T10:05:58;8.13;;;5.25;;
41446;SDS011;27185;52.040;4.490;2023-05-01T10:08:47;9.73;;;5.55;;
41446;SDS011;27185;52.040;4.490;2023-05-01T10:11:52;11.43;;;5.57;;
41446;SDS011;27185;52.040;4.490;2023-05-01T10:14:50;8.90;;;5.72;;
41446;SDS011;27185;52.040;4.490;2023-05-01T10:17:40;11.50;;;5.75;;
41446;SDS011;27185;52.040;4.490;2023-05-01T10:20:27;12.05;;;4.97;;
41446;SDS011;27185;52.040;4.490;2023-05-01T10:23:13;11.57;;;5.30;;
41446;SDS011;27185;52.040;4.490;2023-05-01T10:25:59;9.85;;;5.50;;
41446;SDS011;27185;52.040;4.490;2023-05-01T10:28:47;7.35;;;4.72;;
41446;SDS011;27185;52.040;4.490;2023-05-01T10:31:33;7.15;;;4.85;;
41446;SDS011;27185;52.040;4.490;2023-05-01T10:34:19;12.15;;;5.65;;
41446;SDS011;27185;52.040;4.490;2023-05-01T10:37:09;7.10;;;4.88;;
41446;SDS011;27185;52.040;4.490;2023-05-01T10:43:27;11.48;;;5.05;;
41446;SDS011;27185;52.040;4.490;2023-05-01T10:49:05;8.85;;;5.50;;
41446;SDS011;27185;52.040;4.490;2023-05-01T10:54:43;7.75;;;5.03;;
41446;SDS011;27185;52.040;4.490;2023-05-01T10:57:41;7.97;;;5.43;;
41446;SDS011;27185;52.040;4.490;2023-05-01T11:00:29;11.43;;;5.63;;
41446;SDS011;27185;52.040;4.490;2023-05-01T11:06:07;7.85;;;5.25;;
41446;SDS011;27185;52.040;4.490;2023-05-01T11:08:53;8.52;;;4.88;;
41446;SDS011;27185;52.040;4.490;2023-05-01T11:23:15;9.57;;;5.35;;
41446;SDS011;27185;52.040;4.490;2023-05-01T11:26:02;7.93;;;5.50;;
41446;SDS011;27185;52.040;4.490;2023-05-01T11:28:49;11.20;;;4.65;;
41446;SDS011;27185;52.040;4.490;2023-05-01T11:31:38;6.55;;;4.22;;
41446;SDS011;27185;52.040;4.490;2023-05-01T11:34:25;9.02;;;4.65;;
41446;SDS011;27185;52.040;4.490;2023-05-01T11:37:11;6.82;;;4.43;;
41446;SDS011;27185;52.040;4.490;2023-05-01T11:39:56;11.20;;;4.72;;
41446;SDS011;27185;52.040;4.490;2023-05-01T11:42:42;11.07;;;4.40;;
41446;SDS011;27185;52.040;4.490;2023-05-01T11:45:28;8.43;;;4.63;;
41446;SDS011;27185;52.040;4.490;2023-05-01T11:48:14;9.77;;;4.03;;
41446;SDS011;27185;52.040;4.490;2023-05-01T11:51:10;8.23;;;4.40;;
41446;SDS011;27185;52.040;4.490;2023-05-01T11:54:00;7.70;;;3.42;;
41446;SDS011;27185;52.040;4.490;2023-05-01T11:56:47;10.90;;;4.20;;
41446;SDS011;27185;52.040;4.490;2023-05-01T11:59:45;8.93;;;4.93;;
41446;SDS011;27185;52.040;4.490;2023-05-01T12:02:31;8.65;;;4.25;;
41446;SDS011;27185;52.040;4.490;2023-05-01T12:05:17;7.38;;;4.43;;
41446;SDS011;27185;52.040;4.490;2023-05-01T12:11:07;7.50;;;4.00;;
41446;SDS011;27185;52.040;4.490;2023-05-01T12:13:53;6.05;;;3.78;;
41446;SDS011;27185;52.040;4.490;2023-05-01T12:16:39;6.90;;;4.50;;
41446;SDS011;27185;52.040;4.490;2023-05-01T12:19:26;7.47;;;3.90;;
41446;SDS011;27185;52.040;4.490;2023-05-01T12:22:11;7.13;;;4.63;;
41446;SDS011;27185;52.040;4.490;2023-05-01T12:24:57;7.20;;;4.40;;
41446;SDS011;27185;52.040;4.490;2023-05-01T12:27:44;6.63;;;4.43;;
41446;SDS011;27185;52.040;4.490;2023-05-01T12:30:30;6.18;;;4.43;;
41446;SDS011;27185;52.040;4.490;2023-05-01T12:33:19;7.72;;;4.70;;
41446;SDS011;27185;52.040;4.490;2023-05-01T12:36:09;7.80;;;4.25;;
41446;SDS011;27185;52.040;4.490;2023-05-01T12:41:49;5.50;;;4.10;;
41446;SDS011;27185;52.040;4.490;2023-05-01T12:44:35;6.80;;;4.72;;
41446;SDS011;27185;52.040;4.490;2023-05-01T12:47:21;6.95;;;4.75;;
41446;SDS011;27185;52.040;4.490;2023-05-01T12:50:06;7.75;;;4.07;;
41446;SDS011;27185;52.040;4.490;2023-05-01T12:52:53;6.15;;;4.40;;
41446;SDS011;27185;52.040;4.490;2023-05-01T12:55:46;6.40;;;4.45;;
41446;SDS011;27185;52.040;4.490;2023-05-01T12:58:36;8.48;;;4.70;;
41446;SDS011;27185;52.040;4.490;2023-05-01T13:01:23;6.25;;;4.10;;
41446;SDS011;27185;52.040;4.490;2023-05-01T13:04:18;6.05;;;3.88;;
41446;SDS011;27185;52.040;4.490;2023-05-01T13:09:58;4.57;;;3.08;;
41446;SDS011;27185;52.040;4.490;2023-05-01T13:12:44;5.07;;;3.45;;
41446;SDS011;27185;52.040;4.490;2023-05-01T13:15:30;5.63;;;3.58;;
41446;SDS011;27185;52.040;4.490;2023-05-01T13:18:16;5.07;;;3.67;;
41446;SDS011;27185;52.040;4.490;2023-05-01T13:21:05;4.32;;;3.03;;
41446;SDS011;27185;52.040;4.490;2023-05-01T13:23:56;4.45;;;3.20;;
41446;SDS011;27185;52.040;4.490;2023-05-01T13:29:29;5.05;;;2.63;;
41446;SDS011;27185;52.040;4.490;2023-05-01T13:32:15;5.65;;;3.25;;
41446;SDS011;27185;52.040;4.490;2023-05-01T13:35:01;7.00;;;3.80;;
41446;SDS011;27185;52.040;4.490;2023-05-01T13:37:47;6.88;;;3.63;;
41446;SDS011;27185;52.040;4.490;2023-05-01T13:40:33;9.43;;;5.15;;
41446;SDS011;27185;52.040;4.490;2023-05-01T13:43:18;5.75;;;4.47;;
41446;SDS011;27185;52.040;4.490;2023-05-01T13:46:06;7.78;;;5.07;;
41446;SDS011;27185;52.040;4.490;2023-05-01T13:48:51;4.70;;;3.58;;
41446;SDS011;27185;52.040;4.490;2023-05-01T13:51:41;6.60;;;4.10;;
41446;SDS011;27185;52.040;4.490;2023-05-01T13:54:28;6.47;;;4.05;;
41446;SDS011;27185;52.040;4.490;2023-05-01T13:57:14;4.65;;;3.70;;
41446;SDS011;27185;52.040;4.490;2023-05-01T14:00:01;8.55;;;5.95;;
41446;SDS011;27185;52.040;4.490;2023-05-01T14:02:47;7.07;;;4.18;;
41446;SDS011;27185;52.040;4.490;2023-05-01T14:05:33;6.57;;;4.35;;
41446;SDS011;27185;52.040;4.490;2023-05-01T14:08:20;5.72;;;4.13;;
41446;SDS011;27185;52.040;4.490;2023-05-01T14:11:13;5.88;;;3.58;;
41446;SDS011;27185;52.040;4.490;2023-05-01T14:13:59;5.43;;;3.72;;
41446;SDS011;27185;52.040;4.490;2023-05-01T14:16:49;5.47;;;2.97;;
41446;SDS011;27185;52.040;4.490;2023-05-01T14:19:35;33.63;;;20.83;;
41446;SDS011;27185;52.040;4.490;2023-05-01T14:25:27;21.52;;;14.38;;
41446;SDS011;27185;52.040;4.490;2023-05-01T14:28:15;13.68;;;8.27;;
41446;SDS011;27185;52.040;4.490;2023-05-01T14:31:01;6.75;;;4.88;;
41446;SDS011;27185;52.040;4.490;2023-05-01T14:33:48;9.98;;;6.28;;
41446;SDS011;27185;52.040;4.490;2023-05-01T14:36:38;6.57;;;5.00;;
41446;SDS011;27185;52.040;4.490;2023-05-01T14:39:24;6.95;;;3.80;;
41446;SDS011;27185;52.040;4.490;2023-05-01T14:42:11;11.27;;;7.40;;
41446;SDS011;27185;52.040;4.490;2023-05-01T14:44:56;12.07;;;8.23;;
41446;SDS011;27185;52.040;4.490;2023-05-01T14:47:43;8.50;;;6.30;;
41446;SDS011;27185;52.040;4.490;2023-05-01T14:50:30;8.73;;;6.85;;
41446;SDS011;27185;52.040;4.490;2023-05-01T14:53:16;17.67;;;12.60;;
41446;SDS011;27185;52.040;4.490;2023-05-01T14:56:02;10.20;;;7.88;;
41446;SDS011;27185;52.040;4.490;2023-05-01T14:58:48;15.15;;;7.07;;
41446;SDS011;27185;52.040;4.490;2023-05-01T15:01:34;9.00;;;6.65;;
41446;SDS011;27185;52.040;4.490;2023-05-01T15:04:20;7.00;;;5.70;;
41446;SDS011;27185;52.040;4.490;2023-05-01T15:07:06;7.80;;;5.65;;
41446;SDS011;27185;52.040;4.490;2023-05-01T15:09:51;9.18;;;6.57;;
41446;SDS011;27185;52.040;4.490;2023-05-01T15:12:37;6.15;;;5.35;;
41446;SDS011;27185;52.040;4.490;2023-05-01T15:15:23;7.68;;;6.13;;
41446;SDS011;27185;52.040;4.490;2023-05-01T15:18:09;9.45;;;6.40;;
41446;SDS011;27185;52.040;4.490;2023-05-01T15:20:55;9.35;;;7.50;;
41446;SDS011;27185;52.040;4.490;2023-05-01T15:23:41;11.10;;;7.82;;
41446;SDS011;27185;52.040;4.490;2023-05-01T15:26:29;8.50;;;6.38;;
41446;SDS011;27185;52.040;4.490;2023-05-01T15:29:15;10.10;;;7.90;;
41446;SDS011;27185;52.040;4.490;2023-05-01T15:32:01;8.38;;;6.88;;
41446;SDS011;27185;52.040;4.490;2023-05-01T15:34:48;7.65;;;6.78;;
41446;SDS011;27185;52.040;4.490;2023-05-01T15:37:40;8.88;;;6.68;;
41446;SDS011;27185;52.040;4.490;2023-05-01T15:40:26;10.30;;;7.30;;
41446;SDS011;27185;52.040;4.490;2023-05-01T15:43:11;7.53;;;6.03;;
41446;SDS011;27185;52.040;4.490;2023-05-01T15:45:57;8.30;;;7.45;;
41446;SDS011;27185;52.040;4.490;2023-05-01T15:48:43;8.55;;;7.65;;
41446;SDS011;27185;52.040;4.490;2023-05-01T15:51:30;8.13;;;6.35;;
41446;SDS011;27185;52.040;4.490;2023-05-01T15:54:15;12.48;;;7.53;;
41446;SDS011;27185;52.040;4.490;2023-05-01T15:57:01;8.82;;;7.53;;
41446;SDS011;27185;52.040;4.490;2023-05-01T15:59:47;9.95;;;8.20;;
41446;SDS011;27185;52.040;4.490;2023-05-01T16:02:37;10.57;;;8.30;;
41446;SDS011;27185;52.040;4.490;2023-05-01T16:05:23;14.70;;;9.15;;
41446;SDS011;27185;52.040;4.490;2023-05-01T16:08:08;11.25;;;8.60;;
41446;SDS011;27185;52.040;4.490;2023-05-01T16:10:54;11.98;;;8.20;;
41446;SDS011;27185;52.040;4.490;2023-05-01T16:13:42;11.18;;;8.57;;
41446;SDS011;27185;52.040;4.490;2023-05-01T16:16:27;10.75;;;9.57;;
41446;SDS011;27185;52.040;4.490;2023-05-01T16:19:14;12.18;;;9.85;;
41446;SDS011;27185;52.040;4.490;2023-05-01T16:22:03;12.48;;;10.25;;
41446;SDS011;27185;52.040;4.490;2023-05-01T16:24:49;9.75;;;8.65;;
41446;SDS011;27185;52.040;4.490;2023-05-01T16:27:39;13.25;;;9.90;;
41446;SDS011;27185;52.040;4.490;2023-05-01T16:30:29;12.80;;;10.38;;
41446;SDS011;27185;52.040;4.490;2023-05-01T16:33:15;12.77;;;9.90;;
41446;SDS011;27185;52.040;4.490;2023-05-01T16:36:03;13.30;;;10.98;;
41446;SDS011;27185;52.040;4.490;2023-05-01T16:38:49;12.63;;;10.02;;
41446;SDS011;27185;52.040;4.490;2023-05-01T16:41:39;12.02;;;10.13;;
41446;SDS011;27185;52.040;4.490;2023-05-01T16:44:28;13.57;;;10.48;;
41446;SDS011;27185;52.040;4.490;2023-05-01T16:47:14;14.00;;;10.75;;
41446;SDS011;27185;52.040;4.490;2023-05-01T16:50:00;13.85;;;11.75;;
41446;SDS011;27185;52.040;4.490;2023-05-01T16:52:46;17.10;;;12.15;;
41446;SDS011;27185;52.040;4.490;2023-05-01T16:55:32;15.02;;;10.63;;
41446;SDS011;27185;52.040;4.490;2023-05-01T16:58:19;15.80;;;11.65;;
41446;SDS011;27185;52.040;4.490;2023-05-01T17:01:04;14.30;;;11.93;;
41446;SDS011;27185;52.040;4.490;2023-05-01T17:03:50;16.58;;;12.65;;
41446;SDS011;27185;52.040;4.490;2023-05-01T17:06:36;16.85;;;13.85;;
41446;SDS011;27185;52.040;4.490;2023-05-01T17:09:21;16.85;;;13.57;;
41446;SDS011;27185;52.040;4.490;2023-05-01T17:12:07;18.50;;;14.90;;
41446;SDS011;27185;52.040;4.490;2023-05-01T17:14:53;20.20;;;14.85;;
41446;SDS011;27185;52.040;4.490;2023-05-01T17:17:38;20.60;;;15.50;;
41446;SDS011;27185;52.040;4.490;2023-05-01T17:20:24;17.95;;;14.75;;
41446;SDS011;27185;52.040;4.490;2023-05-01T17:23:09;19.00;;;14.82;;
41446;SDS011;27185;52.040;4.490;2023-05-01T17:25:55;20.55;;;15.45;;
41446;SDS011;27185;52.040;4.490;2023-05-01T17:28:40;23.60;;;17.23;;
41446;SDS011;27185;52.040;4.490;2023-05-01T17:34:14;23.65;;;15.98;;
41446;SDS011;27185;52.040;4.490;2023-05-01T17:36:59;22.88;;;16.20;;
41446;SDS011;27185;52.040;4.490;2023-05-01T17:39:45;22.17;;;16.48;;
41446;SDS011;27185;52.040;4.490;2023-05-01T17:42:30;21.70;;;15.45;;
41446;SDS011;27185;52.040;4.490;2023-05-01T17:45:16;23.23;;;16.55;;
41446;SDS011;27185;52.040;4.490;2023-05-01T17:48:02;21.77;;;15.02;;